Airfield :
LOGIN :

Register | Disclaimer

   EN    FR    IT 

 










Legend :    VFR   Marginal VFR   IFR   Intensive IFR   Very Intensive IFR
Visi :
Ceiling :
>= 8 km
>= 3000ft
5 to 8 km
1000 to 3000 ft
1500m to 5 km
500 to 1000 ft
800 to 1500m
200 to 500 ft
< 800m
< 200 ft
Symbols :   Thunderstorms  Fog  Heavy snow  Heavy precipitations  Wind > 20 kt
SIGMETs :     Misc.  Thunderstorms  Icing  Turbulence  Mountain Waves  Volcanic Ashes







- Airport Elevation : 20 ft
- IATA code : DLM


LTBS - Dalaman

CURRENT METAR :
  • 230650Z 10011KT 9999 FEW030 BKN100 13/07 Q1016 BECMG 22012KT

EXPIRED METARs :
  • 230620Z 09009KT 9999 FEW030 BKN100 12/08 Q1016 NOSIG RMK RWY19 04004KT 320V130
  • 230550Z 01007KT 350V070 9999 FEW030 SCT100 07/06 Q1016 NOSIG RMK RWY19 31005KT 270V350
  • 230520Z 05006KT 020V080 9999 FEW030 SCT100 07/06 Q1015 NOSIG RMK RWY19 33004KT
  • 230450Z 02008KT 9999 FEW030 SCT100 07/06 Q1015 NOSIG RMK RWY19 33006KT
  • 230420Z 02009KT 9999 FEW030 SCT100 07/06 Q1015 NOSIG RMK RWY19 35004KT

TAF TAF LTBS
Valid from the 23 at 06:00 until the 24 at 06:00 UTC


230440Z 2306/2406 VRB02KT 9999 SCT030
BECMG 2307/2309 22012KT -SHRA BKN025
PROB30
TEMPO 2312/2316 -TSRA FEW015CB BKN025
BECMG 2315/2317 VRB02KT
No reported NOTAMs for that airfield.



MET'MAP, your aeronautical weather chart ! - Copyright ORBIFLY December 2007 - Disclaimer

ORBIFLY MET'MAP TEAM :

Programming & Development : Alexandra Zaïnal
Concept & Development : Baudouin d'Aumeries
Co-Development & Prog : Marc-Olivier Méhu
Technical & hardware support : Manuel Goepfert

Contact : metmap@orbifly.com




SOURCES & CREDITS :

   NOAA